Kezdőlap
METAR-TAF:

METAR-TAF

Repülőterek :

Wallis, Franciaország

földrajzi szélesség: 13-14S, földrajzi hosszúság: 176-10W, magasság: 23 m

METAR: hiányzik

Idő: 22:43 (10:43 UTC)

Előrejelzés

A jelentés 5 órával és 43 perccel ezelõtt készült, 05:00 UTC
Az előrejelzés 16-én 06 óra UTC és 17-én 06 óra UTC között érvényes
Kelet-délkeleti szél 8 kt
Látótávolság 10 km, vagy több
Szórványos felhőzet 2000 lábon
Valószínűség 30% :
16-én 12 óra UTC és 16-én 18 óra UTC között ideiglenes
Kevés felhő 2000 lábon, Tornyos gomolyfelhő.
záporok
Valószínűség 30% :
17-én 03 óra UTC és 17-én 06 óra UTC között ideiglenes
Kevés felhő 2000 lábon, Tornyos gomolyfelhő.
záporok

TAF: NLWW 160500Z 1606/1706 12008KT 9999 SCT020 PROB30 TEMPO 1612/1618 SHRA FEW020TCU PROB30 TEMPO 1703/1706 SHRA FEW020TCU

Meteorológiai megfigyelések és előrejelzések több, mint 4000 repülőtéren (METAR és TAF jelentéseket).

A térképen piros és sárga pontok jelzik az elérhető meteorológiai állomásokat.

Mozgassa az egeret a pont fölött, hogy megjelenjen az állomás neve.

Azután kattintson az időjárási megfigyelések és előrejelzések megtekintéséhez.

A térkép megváltoztatása: kattintson a fekete keresztel jelölt zöld gombra ráközelítéshez, a vonallal jelölt zöld gombra távolításhoz, vagy a zöld nyilakra a szomszédos térképek eléréséhez.


METAR-TAF: